Дата Пункты Температура Давл., мм. Влажн., % Ветер Погодные явления
Воздуха Воды Направл. Скорость
26.01.20 05:00 Одесса 2.0 0.0 763 59 Пн-З 2 05 ГОДИН
26.01.20 02:00 Одесса 1.0 0.0 763 58 З 2 02 ГОДИНИ
25.01.20 11:00 Одесса 3.0 6.0 762 51 З 2 23 ГОДИНИ
25.01.20 08:00 Одесса 4.0 6.0 762 50 З 3 20 ГОДИН
25.01.20 05:00 Одесса 6.0 5.0 761 43 З 1 17 ГОДИН
25.01.20 02:00 Одесса 9.0 5.0 761 38 Пн-З 2 14 ГОДИН
25.01.20 11:00 Одесса 5.0 5.0 762 50 Пн-З 2 11 ГОДИН
25.01.20 08:00 Одесса -2.0 5.0 761 75 З 2 08 ГОДИН
25.01.20 02:00 Одесса 2.0 5.0 762 62 Пд-З 4 02 ГОДИНИ
24.01.20 11:00 Одесса 3.0 5.0 763 61 З 4 23 ГОДИНИ
24.01.20 08:00 Одесса 3.0 5.0 764 54 З 4 20 ГОДИН
24.01.20 05:00 Одесса 4.0 5.0 765 52 Пд-З 3 17 ГОДИН
24.01.20 02:00 Одесса 6.0 5.0 766 51 З 1 14 ГОДИН
24.01.20 11:00 Одесса 4.0 5.0 768 58 З 4 11 ГОДИН
24.01.20 08:00 Одесса -1.0 5.0 768 72 З 2 08 ГОДИН
24.01.20 02:00 Одесса 2.0 5.0 768 61 Пн-З 1 02 ГОДИНИ
23.01.20 11:00 Одесса 2.0 5.0 768 59 Пн-З 4 23 ГОДИНИ
23.01.20 08:00 Одесса 3.0 5.0 767 54 Пн-З 2 20 ГОДИН
23.01.20 05:00 Одесса 4.0 5.0 765 42 Пн 2 17 ГОДИН
23.01.20 02:00 Одесса 4.0 5.0 764 52 Пн-З 4 14 ГОДИН
Количество строк
1 2 3 4 5 6 7 8 9 10
Page 1 of 579